createdAt,value
2018-08-17T00:00:09.051Z,22.70
2018-08-17T00:02:37.407Z,22.70
2018-08-17T00:05:05.837Z,22.60
2018-08-17T00:07:34.458Z,22.50
2018-08-17T00:10:02.904Z,22.50
2018-08-17T00:12:31.354Z,22.50
2018-08-17T00:14:59.740Z,22.50
2018-08-17T00:17:28.111Z,22.50
2018-08-17T00:19:56.538Z,22.40
2018-08-17T00:22:24.899Z,22.40
2018-08-17T00:24:53.366Z,22.30
2018-08-17T00:27:21.901Z,22.30
2018-08-17T00:29:50.271Z,22.20
2018-08-17T00:32:19.053Z,22.20
2018-08-17T00:34:47.562Z,22.10
2018-08-17T00:37:15.995Z,22.10
2018-08-17T00:39:44.491Z,22.20
2018-08-17T00:42:12.905Z,22.10
2018-08-17T00:44:41.303Z,22.10
2018-08-17T00:47:09.812Z,22.10
2018-08-17T00:49:38.290Z,22.10
2018-08-17T00:52:06.713Z,22.10
2018-08-17T00:54:35.124Z,22.10
2018-08-17T00:57:03.571Z,22.10
2018-08-17T00:59:32.066Z,22.00
2018-08-17T01:02:00.422Z,22.00
2018-08-17T01:04:28.843Z,22.10
2018-08-17T01:06:57.207Z,22.10
2018-08-17T01:09:25.662Z,22.10
2018-08-17T01:11:54.002Z,22.10
2018-08-17T01:14:22.412Z,22.10
2018-08-17T01:16:50.861Z,22.10
2018-08-17T01:19:19.267Z,22.10
2018-08-17T01:21:47.615Z,22.10
2018-08-17T01:24:16.018Z,22.10
2018-08-17T01:26:44.379Z,22.10
2018-08-17T01:29:12.806Z,22.00
2018-08-17T01:31:41.161Z,22.10
2018-08-17T01:34:09.552Z,22.10
2018-08-17T01:36:37.955Z,22.10
2018-08-17T01:39:08.045Z,22.10
2018-08-17T01:41:36.455Z,22.10
2018-08-17T01:44:04.964Z,22.10
2018-08-17T01:46:33.446Z,22.10
2018-08-17T01:49:02.069Z,22.10
2018-08-17T01:51:30.511Z,22.10
2018-08-17T01:53:59.040Z,22.10
2018-08-17T01:56:27.530Z,22.10
2018-08-17T01:58:55.951Z,22.10
2018-08-17T02:01:24.455Z,22.10
2018-08-17T02:03:52.959Z,22.10
2018-08-17T02:06:21.738Z,22.10
2018-08-17T02:08:50.178Z,22.10
2018-08-17T02:11:18.665Z,22.10
2018-08-17T02:13:47.046Z,22.10
2018-08-17T02:16:15.422Z,22.10
2018-08-17T02:18:43.822Z,22.10
2018-08-17T02:21:12.172Z,22.10
2018-08-17T02:23:40.612Z,22.10
2018-08-17T02:26:08.963Z,22.10
2018-08-17T02:28:37.366Z,22.10
2018-08-17T02:31:05.795Z,22.10
2018-08-17T02:33:34.351Z,22.10
2018-08-17T02:36:02.696Z,22.10
2018-08-17T02:38:31.147Z,22.10
2018-08-17T02:40:59.510Z,22.10
2018-08-17T02:43:27.910Z,22.10
2018-08-17T02:45:56.263Z,22.10
2018-08-17T02:48:24.847Z,22.10
2018-08-17T02:50:53.633Z,22.10
2018-08-17T02:53:22.046Z,22.10
2018-08-17T02:55:50.454Z,22.10
2018-08-17T02:58:18.855Z,22.10
2018-08-17T03:00:47.191Z,22.10
2018-08-17T03:03:15.611Z,22.10
2018-08-17T03:05:44.126Z,22.10
2018-08-17T03:08:12.596Z,22.10
2018-08-17T03:10:41.067Z,22.00
2018-08-17T03:13:09.481Z,22.00
2018-08-17T03:15:37.824Z,22.00
2018-08-17T03:18:06.364Z,22.00
2018-08-17T03:20:34.779Z,21.90
2018-08-17T03:23:03.361Z,21.90
2018-08-17T03:25:31.722Z,21.90
2018-08-17T03:28:00.067Z,21.90
2018-08-17T03:30:28.506Z,21.90
2018-08-17T03:32:56.893Z,21.90
2018-08-17T03:35:25.258Z,21.90
2018-08-17T03:37:53.722Z,21.90
2018-08-17T03:40:22.050Z,21.90
2018-08-17T03:42:50.597Z,21.80
2018-08-17T03:45:18.975Z,21.80
2018-08-17T03:47:47.389Z,21.90
2018-08-17T03:50:15.736Z,21.80
2018-08-17T03:52:44.144Z,21.90
2018-08-17T03:55:12.999Z,21.90
2018-08-17T03:57:41.386Z,21.90
2018-08-17T04:00:09.778Z,21.90
2018-08-17T04:02:38.194Z,21.90
2018-08-17T04:05:06.649Z,21.90
2018-08-17T04:07:35.289Z,21.90
2018-08-17T04:10:03.840Z,21.90
2018-08-17T04:12:32.174Z,21.90
2018-08-17T04:15:00.594Z,21.90
2018-08-17T04:17:28.921Z,21.90
2018-08-17T04:19:57.293Z,21.90
2018-08-17T04:22:25.770Z,21.90
2018-08-17T04:24:54.127Z,21.90
2018-08-17T04:27:22.658Z,21.90
2018-08-17T04:29:51.009Z,21.90
2018-08-17T04:32:19.410Z,22.00
2018-08-17T04:34:47.754Z,22.00
2018-08-17T04:37:16.119Z,22.10
2018-08-17T04:39:44.526Z,22.10
2018-08-17T04:42:12.903Z,22.10
2018-08-17T04:44:41.287Z,22.20
2018-08-17T04:47:09.678Z,22.20
2018-08-17T04:49:38.008Z,22.10
2018-08-17T04:52:06.431Z,22.10
2018-08-17T04:54:34.770Z,22.10
2018-08-17T04:57:03.201Z,22.10
2018-08-17T04:59:31.950Z,22.10
2018-08-17T05:02:00.402Z,22.10
2018-08-17T05:04:28.791Z,22.10
2018-08-17T05:06:57.203Z,22.10
2018-08-17T05:09:25.835Z,22.10
2018-08-17T05:11:54.186Z,22.10
2018-08-17T05:14:22.570Z,22.10
2018-08-17T05:16:51.246Z,22.10
2018-08-17T05:19:19.698Z,22.10
2018-08-17T05:21:48.101Z,22.10
2018-08-17T05:24:16.867Z,22.00
2018-08-17T05:26:45.786Z,22.10
2018-08-17T05:29:14.150Z,22.10
2018-08-17T05:31:42.571Z,22.10
2018-08-17T05:34:10.968Z,22.10
2018-08-17T05:36:39.323Z,22.10
2018-08-17T05:39:08.386Z,22.20
2018-08-17T05:41:36.803Z,22.20
2018-08-17T05:44:05.352Z,22.20
2018-08-17T05:46:33.779Z,22.30
2018-08-17T05:49:02.113Z,22.30
2018-08-17T05:51:30.532Z,22.40
2018-08-17T05:53:58.867Z,22.30
2018-08-17T05:56:27.473Z,22.30
2018-08-17T05:58:55.795Z,22.30
2018-08-17T06:01:24.227Z,22.30
2018-08-17T06:03:53.490Z,22.30
2018-08-17T06:06:21.898Z,22.30
2018-08-17T06:08:50.433Z,22.30
2018-08-17T06:11:19.189Z,22.30
2018-08-17T06:13:47.415Z,22.20
2018-08-17T06:16:15.876Z,22.20
2018-08-17T06:18:44.255Z,22.20
2018-08-17T06:21:13.002Z,22.20
2018-08-17T06:23:41.348Z,22.20
2018-08-17T06:26:10.166Z,22.20
2018-08-17T06:28:38.490Z,22.20
2018-08-17T06:31:06.934Z,22.10
2018-08-17T06:33:35.352Z,22.00
2018-08-17T06:36:03.754Z,22.00
2018-08-17T06:38:32.115Z,21.90
2018-08-17T06:41:00.481Z,21.80
2018-08-17T06:43:28.809Z,21.70
2018-08-17T06:45:57.250Z,21.70
2018-08-17T06:48:25.609Z,21.60
2018-08-17T06:50:54.125Z,21.50
2018-08-17T06:53:22.420Z,21.50
2018-08-17T06:55:50.814Z,21.40
2018-08-17T06:58:19.327Z,21.30
2018-08-17T07:00:47.694Z,21.30
2018-08-17T07:03:16.010Z,21.30
2018-08-17T07:05:44.403Z,21.30
2018-08-17T07:08:12.763Z,21.30
2018-08-17T07:10:41.423Z,21.20
2018-08-17T07:13:09.799Z,21.30
2018-08-17T07:15:38.201Z,21.30
2018-08-17T07:18:06.599Z,21.30
2018-08-17T07:20:35.160Z,21.30
2018-08-17T07:23:03.563Z,21.30
2018-08-17T07:25:31.916Z,21.30
2018-08-17T07:28:00.319Z,21.30
2018-08-17T07:30:28.729Z,21.30
2018-08-17T07:32:57.062Z,21.20
2018-08-17T07:35:25.451Z,21.10
2018-08-17T07:37:53.887Z,21.10
2018-08-17T07:40:22.223Z,21.00
2018-08-17T07:42:50.642Z,20.90
2018-08-17T07:45:19.025Z,20.90
2018-08-17T07:47:47.462Z,20.90
2018-08-17T07:50:17.124Z,20.90
2018-08-17T07:52:46.005Z,21.00
2018-08-17T07:55:14.482Z,20.90
2018-08-17T07:57:42.878Z,21.00
2018-08-17T08:00:11.959Z,21.00
2018-08-17T08:02:40.436Z,21.10
2018-08-17T08:05:10.149Z,21.10
2018-08-17T08:07:39.702Z,21.20
2018-08-17T08:10:09.276Z,21.20
2018-08-17T08:12:37.674Z,21.20
2018-08-17T08:15:06.424Z,21.20
2018-08-17T08:17:34.819Z,21.20
2018-08-17T08:20:14.447Z,21.20
2018-08-17T08:22:43.123Z,21.20
2018-08-17T08:25:11.541Z,21.10
2018-08-17T08:27:39.887Z,21.10
2018-08-17T08:30:08.611Z,21.10
2018-08-17T08:32:37.250Z,21.20
2018-08-17T08:35:06.620Z,21.20
2018-08-17T08:37:35.001Z,21.20
2018-08-17T08:40:03.438Z,21.20
2018-08-17T08:42:31.842Z,21.30
2018-08-17T08:45:00.338Z,21.30
2018-08-17T08:47:28.772Z,21.40
2018-08-17T08:49:57.250Z,21.40
2018-08-17T08:52:25.659Z,21.50
2018-08-17T08:54:54.057Z,21.60
2018-08-17T08:57:22.400Z,21.60
2018-08-17T08:59:50.802Z,21.70
2018-08-17T09:02:19.159Z,21.70
2018-08-17T09:04:47.602Z,21.80
2018-08-17T09:07:16.004Z,21.90
2018-08-17T09:09:44.526Z,22.00
2018-08-17T09:12:13.094Z,22.00
2018-08-17T09:14:41.493Z,22.10
2018-08-17T09:17:09.887Z,22.20
2018-08-17T09:19:38.292Z,22.40
2018-08-17T09:22:06.924Z,22.60
2018-08-17T09:24:35.369Z,22.70
2018-08-17T09:27:03.866Z,22.80
2018-08-17T09:29:32.313Z,23.00
2018-08-17T09:32:00.777Z,23.20
2018-08-17T09:34:29.264Z,23.30
2018-08-17T09:36:57.804Z,23.40
2018-08-17T09:39:26.637Z,23.40
2018-08-17T09:41:55.174Z,23.40
2018-08-17T09:44:23.635Z,23.40
2018-08-17T09:46:52.033Z,23.40
2018-08-17T09:49:20.559Z,23.40
2018-08-17T09:51:48.890Z,23.30
2018-08-17T09:54:17.237Z,23.30
2018-08-17T09:56:45.689Z,23.20
2018-08-17T09:59:14.175Z,23.20
2018-08-17T10:01:47.930Z,23.00
2018-08-17T10:04:21.584Z,22.90
2018-08-17T10:06:55.393Z,22.80
2018-08-17T10:09:24.072Z,22.70
2018-08-17T10:11:52.856Z,22.60
2018-08-17T10:14:21.607Z,22.50
2018-08-17T10:16:49.943Z,22.40
2018-08-17T10:19:18.402Z,22.40
2018-08-17T10:21:54.744Z,22.30
2018-08-17T10:24:23.382Z,22.20
2018-08-17T10:26:53.063Z,22.10
2018-08-17T10:29:22.695Z,22.00
2018-08-17T10:31:51.165Z,22.10
2018-08-17T10:34:19.904Z,22.10
2018-08-17T10:36:48.267Z,22.10
2018-08-17T10:39:16.675Z,22.10
2018-08-17T10:41:45.017Z,22.10
2018-08-17T10:44:13.431Z,22.20
2018-08-17T10:46:42.365Z,22.30
2018-08-17T10:49:11.149Z,22.40
2018-08-17T10:51:39.616Z,22.60
2018-08-17T10:54:07.963Z,22.60
2018-08-17T10:56:36.352Z,22.80
2018-08-17T10:59:04.738Z,22.80
2018-08-17T11:01:33.117Z,22.90
2018-08-17T11:04:01.520Z,22.90
2018-08-17T11:06:29.901Z,22.80
2018-08-17T11:08:58.356Z,22.70
2018-08-17T11:11:26.758Z,22.60
2018-08-17T11:13:55.135Z,22.60
2018-08-17T11:16:23.487Z,22.60
2018-08-17T11:18:51.856Z,22.60
2018-08-17T11:21:20.244Z,22.60
2018-08-17T11:23:48.726Z,22.70
2018-08-17T11:26:17.102Z,22.70
2018-08-17T11:28:45.507Z,22.80
2018-08-17T11:31:13.900Z,22.70
2018-08-17T11:33:42.370Z,22.70
2018-08-17T11:36:11.144Z,22.70
2018-08-17T11:38:39.727Z,22.70
2018-08-17T11:41:09.894Z,22.60
2018-08-17T11:43:38.261Z,22.40
2018-08-17T11:46:06.699Z,22.40
2018-08-17T11:48:35.119Z,22.20
2018-08-17T11:51:03.608Z,22.20
2018-08-17T11:53:32.069Z,22.20
2018-08-17T11:56:00.430Z,22.20
2018-08-17T11:58:28.798Z,22.30
2018-08-17T12:00:57.285Z,22.40
2018-08-17T12:03:25.607Z,22.50
2018-08-17T12:05:53.970Z,22.70
2018-08-17T12:08:22.550Z,22.90
2018-08-17T12:11:06.451Z,23.00
2018-08-17T12:13:38.015Z,23.20
2018-08-17T12:16:06.932Z,23.40
2018-08-17T12:18:35.510Z,23.50
2018-08-17T12:21:03.850Z,23.60
2018-08-17T12:23:32.260Z,23.60
2018-08-17T12:26:00.619Z,23.70
2018-08-17T12:28:32.402Z,23.70
2018-08-17T12:31:01.047Z,23.60
2018-08-17T12:33:29.422Z,23.40
2018-08-17T12:35:57.806Z,23.30
2018-08-17T12:38:26.179Z,23.20
2018-08-17T12:40:56.626Z,23.00
2018-08-17T12:43:30.430Z,22.90
2018-08-17T12:45:58.839Z,22.70
2018-08-17T12:48:27.270Z,22.60
2018-08-17T12:50:59.862Z,22.50
2018-08-17T12:53:28.274Z,22.50
2018-08-17T12:55:56.663Z,22.60
2018-08-17T12:58:25.008Z,22.70
2018-08-17T13:00:53.492Z,22.80
2018-08-17T13:03:21.880Z,22.90
2018-08-17T13:05:50.295Z,23.00
2018-08-17T13:08:18.726Z,23.10
2018-08-17T13:10:47.208Z,23.10
2018-08-17T13:13:15.564Z,23.20
2018-08-17T13:16:18.934Z,23.20
2018-08-17T13:18:47.289Z,23.30
2018-08-17T13:21:15.673Z,23.20
2018-08-17T13:23:44.018Z,23.20
2018-08-17T13:26:13.324Z,23.30
2018-08-17T13:28:41.671Z,23.40
2018-08-17T13:31:10.069Z,23.40
2018-08-17T13:33:38.438Z,23.40
2018-08-17T13:36:06.855Z,23.40
2018-08-17T13:38:35.328Z,23.40
2018-08-17T13:41:03.787Z,23.40
2018-08-17T13:43:32.142Z,23.50
2018-08-17T13:46:00.499Z,23.70
2018-08-17T13:48:28.903Z,24.00
2018-08-17T13:50:57.367Z,24.30
2018-08-17T13:53:25.823Z,24.60
2018-08-17T13:55:54.199Z,24.90
2018-08-17T13:58:22.683Z,25.10
2018-08-17T14:00:51.074Z,25.20
2018-08-17T14:03:19.542Z,25.20
2018-08-17T14:05:47.924Z,25.30
2018-08-17T14:08:16.381Z,25.30
2018-08-17T14:10:44.694Z,25.30
2018-08-17T14:13:13.151Z,25.40
2018-08-17T14:15:41.584Z,25.70
2018-08-17T14:18:09.987Z,26.00
2018-08-17T14:20:38.399Z,26.20
2018-08-17T14:23:06.843Z,26.20
2018-08-17T14:25:35.203Z,26.20
2018-08-17T14:28:03.583Z,26.00
2018-08-17T14:30:31.970Z,26.00
2018-08-17T14:33:00.396Z,26.10
2018-08-17T14:35:28.723Z,26.30
2018-08-17T14:37:57.176Z,26.50
2018-08-17T14:40:26.685Z,26.80
2018-08-17T14:42:54.965Z,27.00
2018-08-17T14:45:23.434Z,27.20
2018-08-17T14:47:51.921Z,27.40
2018-08-17T14:50:20.447Z,27.60
2018-08-17T14:52:48.884Z,27.60
2018-08-17T14:55:17.364Z,27.80
2018-08-17T14:57:46.039Z,27.90
2018-08-17T15:00:17.326Z,28.00
2018-08-17T15:02:45.734Z,28.00
2018-08-17T15:05:15.118Z,27.90
2018-08-17T15:07:43.614Z,27.80
2018-08-17T15:10:14.288Z,27.60
2018-08-17T15:12:43.479Z,27.60
2018-08-17T15:15:12.676Z,27.60
2018-08-17T15:17:41.092Z,27.60
2018-08-17T15:20:10.678Z,27.60
2018-08-17T15:22:39.143Z,27.60
2018-08-17T15:25:07.576Z,27.80
2018-08-17T15:27:35.998Z,27.90
2018-08-17T15:30:06.320Z,28.00
2018-08-17T15:32:34.728Z,28.00
2018-08-17T15:35:03.095Z,28.00
2018-08-17T15:37:31.555Z,28.10
2018-08-17T15:39:59.970Z,28.20
2018-08-17T15:42:28.494Z,28.20
2018-08-17T15:44:56.861Z,28.20
2018-08-17T15:47:25.350Z,28.10
2018-08-17T15:50:13.441Z,28.00
2018-08-17T15:52:42.406Z,27.90
2018-08-17T15:55:10.872Z,27.80
2018-08-17T15:57:39.551Z,27.60
2018-08-17T16:00:12.988Z,27.50
2018-08-17T16:02:41.491Z,27.40
2018-08-17T16:05:09.931Z,27.20
2018-08-17T16:07:38.413Z,27.20
2018-08-17T16:10:08.591Z,27.20
2018-08-17T16:12:37.032Z,27.10
2018-08-17T16:15:06.552Z,27.10
2018-08-17T16:17:35.226Z,27.10
2018-08-17T16:20:03.679Z,27.20
2018-08-17T16:22:32.177Z,27.20
2018-08-17T16:25:00.536Z,27.30
2018-08-17T16:27:28.934Z,27.30
2018-08-17T16:29:57.295Z,27.30
2018-08-17T16:32:25.700Z,27.30
2018-08-17T16:34:54.100Z,27.40
2018-08-17T16:37:22.567Z,27.50
2018-08-17T16:39:52.923Z,27.50
2018-08-17T16:42:26.695Z,27.40
2018-08-17T16:44:55.484Z,27.40
2018-08-17T16:47:23.774Z,27.20
2018-08-17T16:49:52.204Z,27.10
2018-08-17T16:52:20.606Z,26.90
2018-08-17T16:54:49.025Z,26.80
2018-08-17T16:57:17.371Z,26.80
2018-08-17T16:59:45.770Z,26.60
2018-08-17T17:02:14.137Z,26.60
2018-08-17T17:04:43.578Z,26.50
2018-08-17T17:07:11.979Z,26.40
2018-08-17T17:09:40.567Z,26.30
2018-08-17T17:12:12.336Z,26.30
2018-08-17T17:14:40.922Z,26.40
2018-08-17T17:17:09.290Z,26.30
2018-08-17T17:19:37.802Z,26.40
2018-08-17T17:22:06.239Z,26.30
2018-08-17T17:24:34.698Z,26.40
2018-08-17T17:27:03.112Z,26.40
2018-08-17T17:29:34.250Z,26.40
2018-08-17T17:32:02.670Z,26.40
2018-08-17T17:34:31.211Z,26.40
2018-08-17T17:36:59.754Z,26.30
2018-08-17T17:39:28.199Z,26.30
2018-08-17T17:41:56.623Z,26.30
2018-08-17T17:44:25.042Z,26.20
2018-08-17T17:46:53.378Z,26.20
2018-08-17T17:49:21.818Z,26.20
2018-08-17T17:51:50.186Z,26.10
2018-08-17T17:54:20.544Z,26.00
2018-08-17T17:57:00.155Z,26.00
2018-08-17T17:59:28.504Z,25.90
2018-08-17T18:01:57.109Z,25.80
2018-08-17T18:04:30.047Z,25.80
2018-08-17T18:06:59.011Z,25.70
2018-08-17T18:09:27.700Z,25.60
2018-08-17T18:11:56.159Z,25.50
2018-08-17T18:14:24.608Z,25.50
2018-08-17T18:16:53.036Z,25.40
2018-08-17T18:19:21.502Z,25.30
2018-08-17T18:21:49.918Z,25.20
2018-08-17T18:24:18.278Z,25.10
2018-08-17T18:26:48.058Z,25.10
2018-08-17T18:29:16.922Z,25.00
2018-08-17T18:31:45.380Z,24.80
2018-08-17T18:34:13.988Z,24.80
2018-08-17T18:36:42.399Z,24.70
2018-08-17T18:39:13.756Z,24.60
2018-08-17T18:41:42.228Z,24.50
2018-08-17T18:44:11.319Z,24.40
2018-08-17T18:46:39.751Z,24.30
2018-08-17T18:49:08.258Z,24.20
2018-08-17T18:51:36.648Z,24.10
2018-08-17T18:54:05.110Z,24.00
2018-08-17T18:56:33.695Z,23.90
2018-08-17T18:59:02.614Z,23.80
2018-08-17T19:01:30.971Z,23.70
2018-08-17T19:03:59.400Z,23.60
2018-08-17T19:06:27.818Z,23.50
2018-08-17T19:08:56.378Z,23.50
2018-08-17T19:11:24.781Z,23.40
2018-08-17T19:13:53.243Z,23.20
2018-08-17T19:16:21.742Z,23.20
2018-08-17T19:18:50.167Z,23.10
2018-08-17T19:21:18.503Z,23.00
2018-08-17T19:23:46.874Z,23.00
2018-08-17T19:26:15.235Z,22.90
2018-08-17T19:28:43.650Z,22.80
2018-08-17T19:31:12.062Z,22.80
2018-08-17T19:33:40.446Z,22.70
2018-08-17T19:36:08.812Z,22.70
2018-08-17T19:38:41.587Z,22.60
2018-08-17T19:41:10.149Z,22.50
2018-08-17T19:43:38.982Z,22.40
2018-08-17T19:46:07.665Z,22.40
2018-08-17T19:48:35.981Z,22.30
2018-08-17T19:51:08.667Z,22.30
2018-08-17T19:53:37.052Z,22.20
2018-08-17T19:56:05.488Z,22.20
2018-08-17T19:58:33.847Z,22.20
2018-08-17T20:01:02.318Z,22.10
2018-08-17T20:03:30.719Z,22.10
2018-08-17T20:05:59.095Z,22.00
2018-08-17T20:08:27.511Z,22.00
2018-08-17T20:10:56.020Z,22.00
2018-08-17T20:13:24.372Z,21.90
2018-08-17T20:15:52.971Z,21.80
2018-08-17T20:18:21.475Z,21.80
2018-08-17T20:20:49.803Z,21.80
2018-08-17T20:23:18.969Z,21.70
2018-08-17T20:25:47.515Z,21.70
2018-08-17T20:28:15.807Z,21.70
2018-08-17T20:30:44.247Z,21.60
2018-08-17T20:33:18.302Z,21.60
2018-08-17T20:35:46.712Z,21.60
2018-08-17T20:38:15.139Z,21.50
2018-08-17T20:40:43.611Z,21.50
2018-08-17T20:43:11.983Z,21.50
2018-08-17T20:45:40.425Z,21.50
2018-08-17T20:48:08.808Z,21.50
2018-08-17T20:50:37.280Z,21.50
2018-08-17T20:53:05.795Z,21.50
2018-08-17T20:55:34.180Z,21.40
2018-08-17T20:58:02.523Z,21.40
2018-08-17T21:00:30.982Z,21.40
2018-08-17T21:02:59.351Z,21.40
2018-08-17T21:05:27.727Z,21.40
2018-08-17T21:07:56.135Z,21.30
2018-08-17T21:10:24.631Z,21.30
2018-08-17T21:12:53.003Z,21.30
2018-08-17T21:15:21.406Z,21.30
2018-08-17T21:17:49.826Z,21.20
2018-08-17T21:20:18.253Z,21.20
2018-08-17T21:22:46.737Z,21.20
2018-08-17T21:25:15.173Z,21.10
2018-08-17T21:27:43.505Z,21.10
2018-08-17T21:30:12.162Z,21.10
2018-08-17T21:32:40.557Z,21.10
2018-08-17T21:35:08.969Z,21.10
2018-08-17T21:37:37.716Z,21.10
2018-08-17T21:40:14.309Z,21.00
2018-08-17T21:42:42.644Z,21.00
2018-08-17T21:45:11.024Z,21.00
2018-08-17T21:47:39.429Z,20.90
2018-08-17T21:50:13.541Z,20.90
2018-08-17T21:52:42.594Z,20.80
2018-08-17T21:55:11.114Z,20.80
2018-08-17T21:57:39.463Z,20.70
2018-08-17T22:00:14.213Z,20.70
2018-08-17T22:02:45.259Z,20.70
2018-08-17T22:05:17.860Z,20.70
2018-08-17T22:07:46.176Z,20.70
2018-08-17T22:10:14.584Z,20.70
2018-08-17T22:12:42.906Z,20.70
2018-08-17T22:15:11.277Z,20.70
2018-08-17T22:17:40.403Z,20.70
2018-08-17T22:20:09.904Z,20.70
2018-08-17T22:22:38.320Z,20.60
2018-08-17T22:25:13.087Z,20.60
2018-08-17T22:27:41.517Z,20.60
2018-08-17T22:30:19.404Z,20.60
2018-08-17T22:32:47.870Z,20.60
2018-08-17T22:35:16.353Z,20.60
2018-08-17T22:37:44.779Z,20.60
2018-08-17T22:40:13.180Z,20.60
2018-08-17T22:42:41.908Z,20.50
2018-08-17T22:45:10.250Z,20.50
2018-08-17T22:47:38.679Z,20.50
2018-08-17T22:50:07.316Z,20.40
2018-08-17T22:52:35.809Z,20.40
2018-08-17T22:55:07.930Z,20.30
2018-08-17T22:57:36.332Z,20.30
2018-08-17T23:00:21.778Z,20.30
2018-08-17T23:02:51.398Z,20.20
2018-08-17T23:05:21.225Z,20.10
2018-08-17T23:07:49.557Z,20.10
2018-08-17T23:10:19.326Z,20.10
2018-08-17T23:12:48.745Z,20.10
2018-08-17T23:15:17.174Z,20.10
2018-08-17T23:17:48.463Z,20.00
2018-08-17T23:20:21.069Z,20.00
2018-08-17T23:22:50.699Z,20.10
2018-08-17T23:25:19.322Z,20.10
2018-08-17T23:27:48.387Z,20.10
2018-08-17T23:30:17.103Z,20.10
2018-08-17T23:32:45.763Z,20.10
2018-08-17T23:35:14.168Z,20.00
2018-08-17T23:37:42.614Z,20.00
2018-08-17T23:40:11.090Z,20.00
2018-08-17T23:42:39.524Z,20.00
2018-08-17T23:45:09.587Z,20.00
2018-08-17T23:47:37.946Z,20.00
2018-08-17T23:50:07.156Z,20.00
2018-08-17T23:52:35.644Z,20.00
2018-08-17T23:55:04.303Z,19.90
2018-08-17T23:57:32.673Z,19.90
